Time;durP1;ratioP1;P1;durP2;ratioP2;P2;SDS_P1;SDS_P2;PMS_P1;PMS_P2;Temp;Humidity;BMP_temperature;BMP_pressure;BME280_temperature;BME280_humidity;BME280_pressure;Samples;Min_cycle;Max_cycle;Signal;HPM_P1;HPM_P2
2022/05/17 00:01:55;;;;;;;0.88;0.82;;;17.70;99.90;;;;;;5250246;22;20271;-58
2022/05/17 00:04:21;;;;;;;2.70;1.00;;;17.70;99.90;;;;;;5053637;28;20674;-58
2022/05/17 00:06:47;;;;;;;1.67;0.90;;;17.70;99.90;;;;;;5036191;28;20655;-58
2022/05/17 00:09:16;;;;;;;0.95;0.88;;;17.70;99.90;;;;;;5053917;28;20167;-58
2022/05/17 00:11:44;;;;;;;0.75;0.60;;;17.70;99.90;;;;;;5053887;28;20225;-57
2022/05/17 00:14:10;;;;;;;1.67;0.88;;;17.70;99.90;;;;;;5053803;28;20175;-57
2022/05/17 00:16:36;;;;;;;1.63;1.00;;;17.70;99.90;;;;;;5035251;28;20186;-60
2022/05/17 00:19:02;;;;;;;1.15;0.80;;;17.70;99.90;;;;;;5053547;28;20179;-58
2022/05/17 00:21:28;;;;;;;1.55;1.00;;;17.70;99.90;;;;;;5036032;28;20226;-57
2022/05/17 00:23:53;;;;;;;1.77;0.95;;;17.70;99.90;;;;;;5053417;28;20562;-58
2022/05/17 00:26:19;;;;;;;1.55;0.85;;;17.70;99.90;;;;;;5035678;28;20183;-58
2022/05/17 00:28:45;;;;;;;1.40;0.80;;;17.70;99.90;;;;;;5053597;28;20182;-58
2022/05/17 00:31:10;;;;;;;2.90;1.00;;;17.70;99.90;;;;;;5035705;28;20250;-57
2022/05/17 00:33:36;;;;;;;0.90;0.80;;;17.70;99.90;;;;;;5053565;28;20266;-57
2022/05/17 00:36:03;;;;;;;0.93;0.90;;;17.70;99.90;;;;;;5053391;28;20205;-58
2022/05/17 00:38:28;;;;;;;1.40;1.10;;;17.70;99.90;;;;;;5053252;28;20229;-57
2022/05/17 00:40:54;;;;;;;1.38;0.90;;;17.70;99.90;;;;;;5053304;28;20250;-60
2022/05/17 00:46:21;;;;;;;1.38;0.90;;;17.70;99.90;;;;;;5053483;28;20671;-56
2022/05/17 00:48:48;;;;;;;1.85;1.00;;;17.60;99.90;;;;;;5053268;28;20186;-59
2022/05/17 00:51:14;;;;;;;1.10;1.00;;;17.60;99.90;;;;;;5035446;28;20190;-60
2022/05/17 00:53:40;;;;;;;1.60;0.90;;;17.50;99.90;;;;;;5035664;28;20179;-60
2022/05/17 00:56:18;;;;;;;2.97;1.45;;;17.50;99.90;;;;;;5053100;28;20182;-57
2022/05/17 00:58:52;;;;;;;1.27;0.82;;;17.40;99.90;;;;;;5053346;28;20171;-58
2022/05/17 01:01:25;;;;;;;2.03;0.98;;;17.40;99.90;;;;;;5053098;28;20186;-58
2022/05/17 01:03:57;;;;;;;1.83;0.88;;;17.40;99.90;;;;;;5053124;28;20203;-59
2022/05/17 01:06:25;;;;;;;2.60;1.00;;;17.30;99.90;;;;;;5035522;28;20690;-58
2022/05/17 01:08:51;;;;;;;0.98;0.70;;;17.30;99.90;;;;;;5052964;28;20180;-58
2022/05/17 01:11:16;;;;;;;1.92;1.17;;;17.20;99.90;;;;;;5035384;28;20175;-58
2022/05/17 01:16:26;;;;;;;1.30;0.93;;;17.20;99.90;;;;;;5041365;28;20189;-59
2022/05/17 01:18:53;;;;;;;0.75;0.73;;;17.10;99.90;;;;;;5056950;28;20171;-58
2022/05/17 01:21:19;;;;;;;1.33;0.98;;;17.10;99.90;;;;;;5056468;28;20521;-58
2022/05/17 01:23:45;;;;;;;1.00;0.90;;;17.10;99.90;;;;;;5057029;28;20195;-59
2022/05/17 01:26:16;;;;;;;1.17;1.08;;;17.10;99.90;;;;;;5056934;28;20654;-58
2022/05/17 01:28:43;;;;;;;0.80;0.73;;;17.00;99.90;;;;;;5056923;28;20175;-59
2022/05/17 01:31:09;;;;;;;0.85;0.70;;;17.00;99.90;;;;;;5057148;28;20180;-59
2022/05/17 01:33:39;;;;;;;2.38;1.00;;;17.10;99.90;;;;;;5056765;28;20237;-59
2022/05/17 01:36:07;;;;;;;1.45;0.75;;;17.00;99.90;;;;;;5056982;28;20183;-59
2022/05/17 01:38:34;;;;;;;0.82;0.80;;;17.00;99.90;;;;;;5057065;28;20171;-58
2022/05/17 01:41:00;;;;;;;1.48;0.80;;;16.90;99.90;;;;;;5056435;28;20182;-58
2022/05/17 01:43:26;;;;;;;1.77;0.90;;;16.90;99.90;;;;;;5056694;28;20171;-59
2022/05/17 01:45:52;;;;;;;2.03;0.90;;;16.80;99.90;;;;;;5038635;28;20211;-59
2022/05/17 01:48:18;;;;;;;1.70;1.00;;;16.80;99.90;;;;;;5056330;28;20171;-59
2022/05/17 01:50:44;;;;;;;2.35;1.00;;;16.70;99.90;;;;;;5056325;28;20176;-58
2022/05/17 01:53:10;;;;;;;1.15;1.00;;;16.60;99.90;;;;;;5056467;28;20172;-58
2022/05/17 01:55:36;;;;;;;1.92;1.40;;;16.50;99.90;;;;;;5056372;28;20539;-58
2022/05/17 01:58:02;;;;;;;1.38;1.08;;;16.50;99.90;;;;;;5056309;28;20168;-59
2022/05/17 02:00:28;;;;;;;1.33;1.10;;;16.50;99.90;;;;;;5056325;28;20562;-59
2022/05/17 02:02:54;;;;;;;1.58;1.00;;;16.50;99.90;;;;;;5021839;28;20237;-58
2022/05/17 02:05:22;;;;;;;1.02;0.90;;;16.50;99.90;;;;;;5038342;28;20257;-59
2022/05/17 02:07:50;;;;;;;2.65;1.38;;;16.40;99.90;;;;;;5056317;28;20167;-58
2022/05/17 02:10:18;;;;;;;1.95;1.00;;;16.30;99.90;;;;;;5055946;28;20263;-58
2022/05/17 02:12:44;;;;;;;0.77;0.77;;;16.40;99.90;;;;;;5056023;28;20222;-59
2022/05/17 02:15:11;;;;;;;1.20;0.90;;;16.40;99.90;;;;;;5056139;28;20644;-59
2022/05/17 02:17:37;;;;;;;1.35;1.15;;;16.40;99.90;;;;;;5055702;28;20233;-59
2022/05/17 02:20:06;;;;;;;1.60;0.75;;;16.40;99.90;;;;;;5038219;28;20258;-59
2022/05/17 02:22:31;;;;;;;1.38;0.90;;;16.40;99.90;;;;;;5055820;28;20263;-59
2022/05/17 02:24:57;;;;;;;0.93;0.85;;;16.50;99.90;;;;;;5037926;28;20638;-59
2022/05/17 02:27:23;;;;;;;0.90;0.90;;;16.50;99.90;;;;;;5037447;28;20175;-58
2022/05/17 02:29:48;;;;;;;0.70;0.70;;;16.50;99.90;;;;;;5055583;28;20233;-60
2022/05/17 02:32:14;;;;;;;1.77;1.20;;;16.50;99.90;;;;;;5038141;28;20575;-58
2022/05/17 02:34:40;;;;;;;2.45;1.25;;;16.40;99.90;;;;;;5055506;28;20647;-59
2022/05/17 02:37:06;;;;;;;0.95;0.85;;;16.40;99.90;;;;;;5055519;28;20236;-59
2022/05/17 02:39:32;;;;;;;2.67;1.40;;;16.40;99.90;;;;;;5055517;28;20167;-58
2022/05/17 02:41:58;;;;;;;0.80;0.80;;;16.50;99.90;;;;;;5055464;28;20530;-58
2022/05/17 02:44:24;;;;;;;1.75;1.00;;;16.60;99.90;;;;;;5055501;28;20207;-59
2022/05/17 02:46:50;;;;;;;1.25;1.00;;;16.70;99.90;;;;;;5055245;28;20178;-59
2022/05/17 02:49:16;;;;;;;1.50;0.98;;;16.70;99.90;;;;;;5037736;28;20184;-59
2022/05/17 02:51:41;;;;;;;1.05;0.82;;;16.70;99.90;;;;;;5055607;28;20258;-59
2022/05/17 02:54:10;;;;;;;1.13;1.00;;;16.70;99.90;;;;;;5020920;28;20180;-59
2022/05/17 02:56:36;;;;;;;1.23;0.90;;;16.80;99.90;;;;;;5055075;28;20226;-59
2022/05/17 02:59:03;;;;;;;2.40;0.95;;;16.80;99.90;;;;;;5020754;28;20586;-59
2022/05/17 03:01:29;;;;;;;1.92;1.00;;;16.80;99.90;;;;;;5055136;28;20183;-59
2022/05/17 03:03:55;;;;;;;2.50;1.10;;;16.70;99.90;;;;;;5055081;28;20179;-59
2022/05/17 03:06:21;;;;;;;1.00;0.90;;;16.80;99.90;;;;;;5037647;28;20178;-59
2022/05/17 03:08:47;;;;;;;2.35;0.98;;;16.80;99.90;;;;;;5054939;28;20276;-59
2022/05/17 03:11:12;;;;;;;1.15;0.77;;;16.80;99.90;;;;;;5054895;28;20239;-59
2022/05/17 03:13:38;;;;;;;1.13;0.82;;;16.80;99.90;;;;;;5054856;28;20517;-58
2022/05/17 03:16:05;;;;;;;1.67;1.10;;;16.80;99.90;;;;;;5055176;28;20536;-59
2022/05/17 03:18:30;;;;;;;1.92;1.17;;;16.80;99.90;;;;;;5037094;28;20743;-59
2022/05/17 03:20:56;;;;;;;1.52;0.90;;;16.80;99.90;;;;;;5054829;28;20180;-59
2022/05/17 03:23:22;;;;;;;1.10;0.85;;;16.90;99.90;;;;;;5054687;28;20183;-59
2022/05/17 03:25:48;;;;;;;1.10;0.85;;;16.90;99.90;;;;;;5036614;28;20713;-59
2022/05/17 03:28:14;;;;;;;1.55;0.90;;;16.90;99.90;;;;;;5054475;28;20211;-59
2022/05/17 03:30:40;;;;;;;1.63;0.90;;;16.90;99.90;;;;;;5036908;28;20187;-59
2022/05/17 03:33:06;;;;;;;1.10;1.10;;;16.90;99.90;;;;;;5054696;28;20179;-58
2022/05/17 03:35:32;;;;;;;3.50;1.00;;;16.90;99.90;;;;;;5054495;28;20181;-58
2022/05/17 03:37:58;;;;;;;0.80;0.80;;;16.90;99.90;;;;;;5053852;28;20174;-58
2022/05/17 03:40:23;;;;;;;1.45;1.05;;;16.80;99.90;;;;;;5036716;28;20223;-58
2022/05/17 03:42:49;;;;;;;1.10;0.90;;;16.80;99.90;;;;;;5054125;28;20198;-59
2022/05/17 03:45:15;;;;;;;2.75;0.90;;;16.80;99.90;;;;;;5054453;28;20560;-58
2022/05/17 03:47:41;;;;;;;1.17;0.90;;;16.80;99.90;;;;;;5054138;28;20171;-59
2022/05/17 03:50:08;;;;;;;1.13;0.98;;;16.80;99.90;;;;;;5054233;28;20180;-59
2022/05/17 03:52:34;;;;;;;1.23;1.00;;;16.80;99.90;;;;;;5036400;28;20226;-58
2022/05/17 03:55:01;;;;;;;2.17;1.00;;;16.80;99.90;;;;;;5036147;28;20179;-59
2022/05/17 03:57:28;;;;;;;1.00;0.80;;;16.80;99.90;;;;;;5053905;28;20196;-59
2022/05/17 03:59:54;;;;;;;1.45;0.90;;;16.80;99.90;;;;;;5036297;28;20640;-59
2022/05/17 04:02:22;;;;;;;1.73;1.10;;;16.80;99.90;;;;;;5053912;28;20199;-59
2022/05/17 04:04:50;;;;;;;1.38;1.00;;;16.70;99.90;;;;;;5053861;28;20238;-58
2022/05/17 04:07:16;;;;;;;1.58;0.73;;;16.90;99.90;;;;;;5053851;28;20693;-59
2022/05/17 04:09:42;;;;;;;1.30;1.00;;;17.10;99.90;;;;;;5053801;28;20180;-59
2022/05/17 04:12:08;;;;;;;1.20;0.93;;;17.00;99.90;;;;;;5035783;28;20183;-58
2022/05/17 04:14:34;;;;;;;0.90;0.90;;;17.00;99.90;;;;;;5053850;28;20178;-59
2022/05/17 04:16:59;;;;;;;1.35;1.00;;;17.00;99.90;;;;;;5053785;28;20535;-59
2022/05/17 04:19:25;;;;;;;2.40;1.20;;;17.10;99.90;;;;;;5053661;28;20600;-59
2022/05/17 04:21:51;;;;;;;2.03;1.00;;;17.10;99.90;;;;;;5053587;28;20173;-59
2022/05/17 04:24:16;;;;;;;1.52;0.90;;;17.10;99.90;;;;;;5053439;28;20181;-59
2022/05/17 04:26:42;;;;;;;1.33;1.00;;;17.10;99.90;;;;;;5053384;28;20182;-59
2022/05/17 04:29:09;;;;;;;1.13;1.02;;;17.20;99.90;;;;;;5053509;28;20182;-59
2022/05/17 04:31:36;;;;;;;1.42;1.10;;;17.20;99.90;;;;;;5053526;28;20214;-58
2022/05/17 04:34:03;;;;;;;1.75;1.00;;;17.20;99.90;;;;;;5035592;28;20213;-59
2022/05/17 04:36:29;;;;;;;2.20;1.20;;;17.20;99.90;;;;;;5053367;28;20175;-59
2022/05/17 04:38:54;;;;;;;2.45;1.40;;;17.30;99.90;;;;;;5035508;28;20248;-60
2022/05/17 04:41:20;;;;;;;3.10;1.10;;;17.30;99.90;;;;;;5053214;28;20206;-59
2022/05/17 04:43:46;;;;;;;2.92;1.30;;;17.30;99.90;;;;;;5053228;28;20644;-58
2022/05/17 04:46:12;;;;;;;2.42;1.65;;;17.30;99.90;;;;;;5053300;28;20260;-58
2022/05/17 04:48:38;;;;;;;1.92;1.10;;;17.20;99.90;;;;;;5018852;28;20237;-59
2022/05/17 04:51:09;;;;;;;1.45;1.23;;;17.30;99.90;;;;;;5053296;28;20628;-59
2022/05/17 04:53:36;;;;;;;1.80;1.10;;;17.50;99.90;;;;;;5053172;28;20666;-58
2022/05/17 04:56:02;;;;;;;1.67;1.20;;;17.40;99.90;;;;;;5018755;28;20179;-59
2022/05/17 04:58:28;;;;;;;1.73;1.35;;;17.30;99.90;;;;;;5018896;28;20290;-59
2022/05/17 05:00:54;;;;;;;1.35;1.25;;;17.30;99.90;;;;;;5052967;28;20286;-57
2022/05/17 05:03:19;;;;;;;1.75;1.10;;;17.20;99.90;;;;;;5035359;28;20531;-57
2022/05/17 05:05:45;;;;;;;1.20;0.98;;;17.30;99.90;;;;;;5052811;28;20219;-57
2022/05/17 05:08:10;;;;;;;1.23;0.95;;;17.20;99.90;;;;;;5035180;28;20183;-56
2022/05/17 05:10:36;;;;;;;1.58;1.15;;;17.10;99.90;;;;;;5052649;28;20627;-58
2022/05/17 05:13:02;;;;;;;2.28;1.38;;;17.10;99.90;;;;;;5053407;28;20232;-58
2022/05/17 05:15:28;;;;;;;2.38;1.48;;;17.30;99.90;;;;;;5053145;28;20183;-57
2022/05/17 05:17:54;;;;;;;1.17;1.05;;;17.30;99.90;;;;;;5052806;28;20232;-56
2022/05/17 05:20:20;;;;;;;3.72;1.27;;;17.30;99.90;;;;;;5035258;28;20194;-57
2022/05/17 05:22:46;;;;;;;2.63;1.40;;;17.30;99.90;;;;;;5052831;28;20566;-57
2022/05/17 05:25:14;;;;;;;1.88;1.30;;;17.40;99.90;;;;;;5052851;28;20248;-57
2022/05/17 05:27:41;;;;;;;1.60;1.30;;;17.40;99.90;;;;;;5052271;28;20168;-61
2022/05/17 05:30:11;;;;;;;1.50;1.08;;;17.40;99.90;;;;;;5034542;28;20175;-58
2022/05/17 05:32:37;;;;;;;1.90;1.25;;;17.50;99.90;;;;;;5052769;28;20182;-57
2022/05/17 05:35:03;;;;;;;4.20;1.23;;;17.40;99.90;;;;;;5034976;28;20592;-58
2022/05/17 05:37:29;;;;;;;1.75;0.95;;;17.40;99.90;;;;;;5052595;28;20179;-57
2022/05/17 05:39:55;;;;;;;1.42;1.10;;;17.40;99.90;;;;;;5035149;28;20266;-58
2022/05/17 05:42:21;;;;;;;3.47;1.42;;;17.50;99.90;;;;;;5052659;28;20207;-57
2022/05/17 05:44:47;;;;;;;2.70;1.48;;;17.50;99.90;;;;;;5034850;28;20691;-56
2022/05/17 05:47:12;;;;;;;2.15;1.52;;;17.50;99.90;;;;;;5052602;28;20175;-57
2022/05/17 05:49:38;;;;;;;2.53;1.45;;;17.50;99.90;;;;;;5034857;28;20532;-58
2022/05/17 05:52:04;;;;;;;1.67;1.42;;;17.30;99.90;;;;;;5034570;28;20187;-58
2022/05/17 05:54:30;;;;;;;2.17;1.50;;;17.30;99.90;;;;;;5052487;28;20171;-58
2022/05/17 05:57:00;;;;;;;3.53;1.60;;;17.30;99.90;;;;;;5052684;28;20179;-57
2022/05/17 05:59:28;;;;;;;1.88;1.25;;;17.30;99.90;;;;;;5034838;28;20217;-58
2022/05/17 06:01:54;;;;;;;2.47;1.75;;;17.30;99.90;;;;;;5054670;28;20282;-56
2022/05/17 06:04:19;;;;;;;1.60;1.27;;;17.30;99.90;;;;;;5056148;28;20205;-59
2022/05/17 06:06:45;;;;;;;1.95;1.73;;;17.30;99.90;;;;;;5056058;28;20214;-57
2022/05/17 06:09:11;;;;;;;2.42;1.50;;;17.40;99.90;;;;;;5056362;28;20590;-57
2022/05/17 06:11:37;;;;;;;2.50;1.58;;;17.40;99.90;;;;;;5056193;28;20178;-57
2022/05/17 06:14:03;;;;;;;3.97;1.42;;;17.40;99.90;;;;;;5056142;28;20187;-57
2022/05/17 06:16:29;;;;;;;2.47;1.60;;;17.50;99.90;;;;;;5038057;28;20655;-57
2022/05/17 06:18:55;;;;;;;2.28;1.70;;;17.50;99.90;;;;;;5055816;28;20172;-57
2022/05/17 06:21:20;;;;;;;1.90;1.60;;;17.50;99.90;;;;;;5056063;28;20173;-56
2022/05/17 06:23:46;;;;;;;1.63;1.40;;;17.50;99.90;;;;;;5056201;28;20179;-57
2022/05/17 06:26:12;;;;;;;1.50;1.23;;;17.60;99.90;;;;;;5037876;28;20215;-57
2022/05/17 06:28:38;;;;;;;2.10;1.60;;;17.60;99.90;;;;;;5037868;28;20203;-57
2022/05/17 06:31:03;;;;;;;4.63;1.65;;;17.60;99.90;;;;;;5055828;28;20194;-57
2022/05/17 06:33:29;;;;;;;3.33;1.30;;;17.60;99.90;;;;;;5055656;28;20178;-56
2022/05/17 06:35:55;;;;;;;2.55;1.60;;;17.60;99.90;;;;;;5055461;28;20270;-57
2022/05/17 06:38:22;;;;;;;2.20;1.75;;;17.70;99.90;;;;;;5055587;28;20171;-57
2022/05/17 06:40:48;;;;;;;4.10;1.98;;;17.70;99.90;;;;;;5055570;28;20179;-56
2022/05/17 06:43:13;;;;;;;2.63;1.48;;;17.70;99.90;;;;;;5037871;28;20171;-60
2022/05/17 06:45:39;;;;;;;1.83;1.40;;;17.70;99.90;;;;;;5055418;28;20567;-57
2022/05/17 06:48:06;;;;;;;3.10;1.45;;;17.70;99.90;;;;;;5054694;28;20175;-58
2022/05/17 06:50:32;;;;;;;2.28;1.70;;;17.80;99.90;;;;;;5055549;28;20175;-57
2022/05/17 06:52:58;;;;;;;2.20;1.70;;;17.90;99.90;;;;;;5055169;28;20203;-56
2022/05/17 06:55:24;;;;;;;2.95;1.42;;;18.00;99.90;;;;;;5054786;28;20179;-57
2022/05/17 06:57:50;;;;;;;2.67;1.55;;;18.00;99.90;;;;;;5037366;28;20221;-57
2022/05/17 07:00:18;;;;;;;2.75;1.35;;;18.20;99.90;;;;;;5037349;28;20191;-58
2022/05/17 07:02:44;;;;;;;2.17;1.30;;;18.20;99.90;;;;;;5055022;28;20262;-57
2022/05/17 07:05:10;;;;;;;3.08;1.50;;;18.30;99.90;;;;;;5054844;28;20282;-57
2022/05/17 07:07:37;;;;;;;1.92;1.35;;;18.40;99.90;;;;;;5054993;28;20183;-58
2022/05/17 07:15:32;;;;;;;1.83;1.20;;;18.60;99.90;;;;;;5055149;28;20237;-57
2022/05/17 07:18:00;;;;;;;1.63;1.27;;;18.70;99.90;;;;;;5036762;28;20175;-57
2022/05/17 07:20:27;;;;;;;2.42;1.20;;;18.80;99.90;;;;;;5054778;28;20188;-57
2022/05/17 07:22:52;;;;;;;1.67;1.00;;;18.70;99.90;;;;;;5036819;28;20590;-58
2022/05/17 07:25:18;;;;;;;1.40;1.00;;;18.60;99.90;;;;;;5054731;28;20203;-57
2022/05/17 07:27:45;;;;;;;1.23;1.13;;;18.60;99.90;;;;;;5054468;28;20604;-58
2022/05/17 07:30:11;;;;;;;1.52;1.10;;;18.70;99.90;;;;;;5054669;28;20513;-58
2022/05/17 07:32:37;;;;;;;1.33;0.98;;;18.60;99.90;;;;;;5054552;28;20580;-56
2022/05/17 07:35:04;;;;;;;2.25;1.13;;;18.60;99.90;;;;;;5054579;28;20179;-57
2022/05/17 07:37:29;;;;;;;2.03;1.20;;;18.80;99.90;;;;;;5036483;28;20202;-57
2022/05/17 07:39:55;;;;;;;1.88;1.10;;;18.80;99.90;;;;;;5054336;28;20659;-57
2022/05/17 07:42:21;;;;;;;1.15;0.95;;;18.90;99.90;;;;;;5054286;28;20700;-58
2022/05/17 07:44:46;;;;;;;0.80;0.80;;;18.90;99.90;;;;;;5054046;28;20215;-58
2022/05/17 07:47:12;;;;;;;1.80;1.10;;;19.10;99.90;;;;;;5054218;28;20656;-56
2022/05/17 07:49:42;;;;;;;1.67;1.25;;;19.10;99.90;;;;;;5054216;28;20175;-57
2022/05/17 07:52:09;;;;;;;1.10;1.00;;;19.20;99.90;;;;;;5054195;28;20168;-58
2022/05/17 07:54:37;;;;;;;1.70;1.30;;;19.20;99.90;;;;;;5054163;28;20206;-57
2022/05/17 07:57:07;;;;;;;3.13;1.23;;;19.30;99.90;;;;;;5036055;28;20583;-57
2022/05/17 07:59:33;;;;;;;1.75;1.40;;;19.40;99.90;;;;;;5036415;28;20521;-58
2022/05/17 08:01:58;;;;;;;3.88;1.35;;;19.70;99.90;;;;;;5054152;28;20640;-57
2022/05/17 08:04:24;;;;;;;2.05;1.30;;;20.00;99.90;;;;;;5053923;28;20179;-57
2022/05/17 08:06:50;;;;;;;1.65;1.20;;;20.00;99.90;;;;;;5019666;28;20705;-57
2022/05/17 08:09:16;;;;;;;1.98;1.60;;;20.20;99.90;;;;;;5035899;28;20216;-58
2022/05/17 08:11:42;;;;;;;1.67;1.42;;;20.30;99.90;;;;;;5035833;28;20175;-58
2022/05/17 08:14:08;;;;;;;2.10;1.52;;;20.20;99.90;;;;;;5053904;28;20186;-57
2022/05/17 08:16:34;;;;;;;2.03;1.65;;;20.10;99.90;;;;;;5053789;28;20186;-57
2022/05/17 08:19:00;;;;;;;2.88;1.80;;;20.20;99.90;;;;;;5035803;28;20184;-57
2022/05/17 08:21:25;;;;;;;1.98;1.70;;;20.20;99.90;;;;;;5053933;28;20258;-56
2022/05/17 08:23:51;;;;;;;2.72;2.00;;;20.30;99.90;;;;;;5053153;28;20517;-60
2022/05/17 08:29:01;;;;;;;2.65;1.48;;;20.30;99.90;;;;;;5053855;28;20185;-57
2022/05/17 08:31:27;;;;;;;2.13;1.60;;;20.60;99.90;;;;;;5053245;28;20262;-58
2022/05/17 08:33:52;;;;;;;2.10;1.77;;;20.90;99.90;;;;;;5053491;28;20195;-58
2022/05/17 08:36:18;;;;;;;1.63;1.52;;;21.20;99.90;;;;;;5053408;28;20175;-58
2022/05/17 08:38:47;;;;;;;2.17;1.58;;;21.40;99.90;;;;;;5053127;28;20182;-58
2022/05/17 08:41:28;;;;;;;2.35;1.70;;;21.50;99.90;;;;;;5052839;28;20186;-57
2022/05/17 08:44:02;;;;;;;2.20;1.60;;;21.70;99.90;;;;;;5053496;28;20535;-58
2022/05/17 08:46:40;;;;;;;4.05;2.47;;;22.00;99.90;;;;;;5053287;28;20253;-59
2022/05/17 08:49:26;;;;;;;2.78;1.85;;;22.00;99.90;;;;;;5053064;28;20183;-58
2022/05/17 08:52:05;;;;;;;3.90;1.90;;;22.20;99.90;;;;;;5053119;28;20171;-60
2022/05/17 08:54:56;;;;;;;2.15;1.80;;;22.60;99.90;;;;;;5036193;28;20273;-58
2022/05/17 08:57:41;;;;;;;2.92;1.58;;;22.90;99.90;;;;;;5015183;28;20179;-58
2022/05/17 09:00:21;;;;;;;1.98;1.70;;;23.30;99.90;;;;;;5053468;28;20179;-58
2022/05/17 09:02:53;;;;;;;2.67;1.70;;;23.30;99.90;;;;;;5052966;28;20178;-58
2022/05/17 09:05:36;;;;;;;2.53;2.10;;;23.70;99.90;;;;;;5035278;28;20249;-58
2022/05/17 09:08:31;;;;;;;2.00;1.77;;;23.70;99.90;;;;;;5053221;28;20171;-58
2022/05/17 09:11:22;;;;;;;2.28;1.65;;;23.80;99.90;;;;;;5053081;28;20658;-58
2022/05/17 09:14:00;;;;;;;2.13;1.75;;;23.40;99.90;;;;;;5043757;28;20187;-58
2022/05/17 09:16:31;;;;;;;2.25;1.67;;;23.50;99.90;;;;;;5053051;28;20749;-58
2022/05/17 09:18:57;;;;;;;3.15;2.17;;;23.60;99.90;;;;;;5019102;28;20270;-58
2022/05/17 09:21:28;;;;;;;3.00;1.65;;;23.70;99.90;;;;;;5052769;28;20262;-58
2022/05/17 09:23:56;;;;;;;2.92;1.85;;;23.80;99.90;;;;;;5052903;28;20171;-58
2022/05/17 09:26:23;;;;;;;2.53;1.90;;;24.10;99.90;;;;;;5052831;28;20206;-58
2022/05/17 09:29:14;;;;;;;3.05;2.00;;;24.20;99.90;;;;;;5052743;28;20171;-57
2022/05/17 09:31:51;;;;;;;3.17;2.08;;;24.50;99.90;;;;;;5052634;28;20636;-58
2022/05/17 09:34:27;;;;;;;2.28;1.73;;;24.50;99.90;;;;;;5052700;28;20175;-59
2022/05/17 09:36:53;;;;;;;1.88;1.65;;;24.80;99.90;;;;;;5054015;28;20659;-58
2022/05/17 09:39:25;;;;;;;4.80;2.75;;;24.90;99.90;;;;;;5053528;28;20270;-58
2022/05/17 09:41:55;;;;;;;3.72;2.65;;;24.90;99.90;;;;;;5036837;28;20328;-58
2022/05/17 09:44:26;;;;;;;6.72;4.57;;;25.00;99.90;;;;;;5055418;28;20171;-62
2022/05/17 09:47:00;;;;;;;2.50;2.20;;;25.10;99.90;;;;;;5055427;28;20266;-58
2022/05/17 09:52:35;;;;;;;3.60;2.50;;;25.10;99.80;;;;;;5056254;28;20198;-57
2022/05/17 09:55:07;;;;;;;3.38;2.30;;;24.70;99.90;;;;;;5055871;28;20936;-57
2022/05/17 09:57:33;;;;;;;4.40;2.60;;;25.00;99.90;;;;;;5056283;28;20224;-57
2022/05/17 10:00:12;;;;;;;2.83;2.15;;;25.00;99.90;;;;;;5055854;28;20175;-58
2022/05/17 10:02:55;;;;;;;3.75;2.25;;;25.10;99.90;;;;;;5038397;28;20640;-57
2022/05/17 10:05:20;;;;;;;3.15;2.35;;;25.40;99.90;;;;;;5056148;28;20253;-57
2022/05/17 10:07:59;;;;;;;2.67;2.03;;;25.70;99.90;;;;;;5056138;28;20172;-57
2022/05/17 10:10:32;;;;;;;2.50;2.30;;;25.90;99.90;;;;;;5055974;28;20548;-57
2022/05/17 10:13:19;;;;;;;3.15;2.25;;;25.80;99.90;;;;;;5056256;28;20163;-57
2022/05/17 10:15:48;;;;;;;3.40;2.55;;;25.90;99.80;;;;;;5055947;28;20674;-57
2022/05/17 10:18:46;;;;;;;3.15;2.53;;;25.70;99.60;;;;;;5055929;28;20168;-58
2022/05/17 10:21:32;;;;;;;5.13;2.92;;;25.50;99.30;;;;;;5056000;28;20250;-57
2022/05/17 10:24:04;;;;;;;2.45;2.10;;;25.50;99.30;;;;;;5041533;28;20213;-57
2022/05/17 10:26:35;;;;;;;4.30;2.75;;;25.70;99.90;;;;;;5055817;28;20299;-57
2022/05/17 10:29:26;;;;;;;2.20;1.92;;;25.50;99.80;;;;;;5055703;28;20168;-57
2022/05/17 10:32:16;;;;;;;4.10;2.33;;;25.60;99.90;;;;;;5037936;28;20179;-57
2022/05/17 10:35:16;;;;;;;4.22;2.28;;;25.90;99.90;;;;;;5055683;28;20179;-57
2022/05/17 10:37:59;;;;;;;4.22;2.47;;;26.00;99.50;;;;;;5055835;28;20225;-57
2022/05/17 10:40:43;;;;;;;2.95;2.00;;;26.20;99.10;;;;;;5055643;28;20183;-57
2022/05/17 10:43:24;;;;;;;3.58;2.40;;;26.20;99.90;;;;;;5055538;28;20174;-57
2022/05/17 10:46:10;;;;;;;3.72;2.55;;;26.10;99.30;;;;;;5055144;28;20206;-58
2022/05/17 10:49:07;;;;;;;3.97;2.47;;;26.10;98.60;;;;;;5055221;28;20176;-59
2022/05/17 10:51:43;;;;;;;2.50;2.03;;;26.50;99.50;;;;;;5055313;28;20170;-57
2022/05/17 10:54:26;;;;;;;4.40;2.58;;;26.40;98.10;;;;;;5055100;28;20685;-57
2022/05/17 10:57:32;;;;;;;3.55;2.10;;;26.10;99.40;;;;;;5055415;28;20641;-58
2022/05/17 11:00:14;;;;;;;3.85;2.45;;;26.50;99.40;;;;;;5015472;28;20187;-56
2022/05/17 11:03:04;;;;;;;2.10;1.77;;;26.50;98.10;;;;;;5055253;28;20508;-57
2022/05/17 11:05:53;;;;;;;4.97;1.95;;;26.80;98.30;;;;;;5055038;28;20200;-60
2022/05/17 11:08:45;;;;;;;2.17;1.73;;;26.80;97.70;;;;;;5037183;28;20187;-58
2022/05/17 11:11:35;;;;;;;1.60;1.40;;;27.10;97.60;;;;;;5055239;28;20250;-57
2022/05/17 11:14:09;;;;;;;2.38;1.73;;;27.20;97.40;;;;;;5054929;28;20251;-57
2022/05/17 11:16:44;;;;;;;1.20;1.00;;;27.10;96.60;;;;;;5054945;28;20256;-57
2022/05/17 11:19:29;;;;;;;1.85;1.20;;;27.30;94.80;;;;;;5054983;28;20173;-58
2022/05/17 11:22:06;;;;;;;0.90;0.80;;;27.60;96.60;;;;;;5037005;28;20175;-57
2022/05/17 11:24:56;;;;;;;1.38;1.20;;;28.10;93.80;;;;;;5054826;28;20862;-57
2022/05/17 11:27:33;;;;;;;0.90;0.85;;;28.30;93.80;;;;;;5054581;28;20659;-57
2022/05/17 11:30:08;;;;;;;0.95;0.77;;;28.20;92.80;;;;;;5054717;28;20182;-58
2022/05/17 11:32:38;;;;;;;0.80;0.80;;;28.00;92.60;;;;;;5054688;28;20173;-58
2022/05/17 11:35:26;;;;;;;0.80;0.70;;;27.70;92.40;;;;;;5054425;28;20230;-58
2022/05/17 11:37:53;;;;;;;1.20;0.90;;;27.50;91.50;;;;;;5054638;28;20584;-58
2022/05/17 11:40:43;;;;;;;0.80;0.70;;;27.60;91.40;;;;;;5054443;28;20180;-58
2022/05/17 11:45:56;;;;;;;1.95;0.80;;;27.50;91.60;;;;;;5054228;28;20218;-57
2022/05/17 11:48:42;;;;;;;1.40;0.88;;;27.60;91.70;;;;;;5054120;28;20169;-58
2022/05/17 11:51:07;;;;;;;0.82;0.77;;;27.80;90.70;;;;;;5054084;28;20171;-57
2022/05/17 11:53:42;;;;;;;1.40;0.80;;;28.00;89.10;;;;;;5054125;28;20305;-57
2022/05/17 11:56:34;;;;;;;1.13;0.85;;;28.10;89.10;;;;;;5036168;28;20167;-57
2022/05/17 11:59:08;;;;;;;1.48;0.90;;;28.30;87.40;;;;;;5053605;28;20171;-60
2022/05/17 12:01:37;;;;;;;0.98;0.88;;;28.40;86.60;;;;;;5053699;28;20190;-57
2022/05/17 12:04:21;;;;;;;0.82;0.80;;;28.40;85.70;;;;;;5054032;28;20182;-58
2022/05/17 12:06:52;;;;;;;1.98;1.20;;;28.30;85.60;;;;;;5053856;28;20544;-57
2022/05/17 12:09:21;;;;;;;0.85;0.80;;;28.40;86.40;;;;;;5053232;28;20217;-58
2022/05/17 12:12:10;;;;;;;1.13;1.02;;;28.60;85.80;;;;;;5053957;28;20202;-58
2022/05/17 12:14:57;;;;;;;0.80;0.80;;;28.70;84.90;;;;;;5053672;28;20671;-58
2022/05/17 12:17:35;;;;;;;1.50;0.88;;;28.80;85.30;;;;;;5053538;28;20171;-58
2022/05/17 12:20:19;;;;;;;1.40;0.90;;;28.70;83.20;;;;;;5054031;28;20170;-58
2022/05/17 12:23:13;;;;;;;1.20;1.05;;;29.00;86.10;;;;;;5053642;28;20611;-58
2022/05/17 12:26:10;;;;;;;1.90;1.08;;;28.90;83.60;;;;;;5035576;28;20203;-59
2022/05/17 12:28:41;;;;;;;1.08;0.98;;;28.90;85.50;;;;;;5008423;28;20647;-59
2022/05/17 12:31:10;;;;;;;1.15;0.82;;;28.80;84.80;;;;;;5053478;28;20172;-58
2022/05/17 12:33:45;;;;;;;0.80;0.80;;;28.90;84.80;;;;;;5053521;28;20175;-58
2022/05/17 12:36:21;;;;;;;1.20;1.00;;;28.90;81.30;;;;;;5053237;28;20173;-59
2022/05/17 12:44:45;;;;;;;0.98;0.80;;;28.90;81.20;;;;;;5053175;28;20287;-58
2022/05/17 12:47:18;;;;;;;2.22;0.82;;;28.90;78.90;;;;;;5053460;28;20285;-58
2022/05/17 12:49:45;;;;;;;2.15;1.00;;;28.90;79.90;;;;;;5053247;28;20175;-58
2022/05/17 12:52:12;;;;;;;2.28;0.93;;;29.00;80.40;;;;;;5053335;28;20175;-58
2022/05/17 12:54:38;;;;;;;1.15;0.90;;;29.00;77.60;;;;;;5053124;28;20253;-58
2022/05/17 12:57:25;;;;;;;0.70;0.70;;;29.00;78.40;;;;;;5053075;28;20198;-59
2022/05/17 12:59:50;;;;;;;1.17;0.63;;;28.90;76.50;;;;;;5053251;28;20209;-58
2022/05/17 13:02:22;;;;;;;0.93;0.90;;;29.00;76.80;;;;;;5053200;28;20187;-59
2022/05/17 13:04:48;;;;;;;1.05;0.60;;;29.00;77.70;;;;;;5052986;28;20202;-59
2022/05/17 13:07:16;;;;;;;0.77;0.70;;;29.00;78.70;;;;;;5053094;28;20175;-58
2022/05/17 13:09:59;;;;;;;1.70;0.90;;;28.90;77.10;;;;;;5053513;28;20175;-59
2022/05/17 13:12:28;;;;;;;0.50;0.50;;;29.00;78.10;;;;;;5057277;28;20651;-59
2022/05/17 13:14:55;;;;;;;1.15;0.80;;;29.30;77.30;;;;;;5039272;28;20220;-59
2022/05/17 13:17:34;;;;;;;0.95;0.80;;;29.30;76.90;;;;;;5022914;28;20222;-58
2022/05/17 13:20:29;;;;;;;1.65;0.70;;;29.30;75.90;;;;;;5056883;28;20206;-58
2022/05/17 13:22:55;;;;;;;1.08;0.60;;;29.40;76.80;;;;;;5057139;28;20167;-59
2022/05/17 13:25:38;;;;;;;0.70;0.68;;;29.30;76.50;;;;;;5056955;28;20195;-59
2022/05/17 13:28:06;;;;;;;0.75;0.60;;;29.30;77.00;;;;;;5056750;28;20663;-59
2022/05/17 13:30:37;;;;;;;1.60;0.65;;;29.40;76.90;;;;;;5056896;28;20233;-59